Time;durP1;ratioP1;P1;durP2;ratioP2;P2;SDS_P1;SDS_P2;PMS_P1;PMS_P2;Temp;Humidity;BMP_temperature;BMP_pressure;BME280_temperature;BME280_humidity;BME280_pressure;Samples;Min_cycle;Max_cycle;Signal;HPM_P1;HPM_P2
2022/10/20 06:33:31;;;;;;;18.83;9.43;;;12.20;99.90;;;;;;11007083;23;20042;-75
2022/10/20 06:38:33;;;;;;;17.27;10.60;;;12.10;99.90;;;;;;10338837;28;20042;-76
2022/10/20 06:43:35;;;;;;;16.45;9.85;;;12.20;99.90;;;;;;10325840;28;20105;-74
2022/10/20 06:48:39;;;;;;;19.50;11.23;;;12.20;99.90;;;;;;10294288;28;20051;-75
2022/10/20 06:53:43;;;;;;;18.85;12.32;;;12.20;99.90;;;;;;10325667;28;20138;-75
2022/10/20 06:58:49;;;;;;;17.17;11.13;;;12.00;99.90;;;;;;10282258;28;20163;-76
2022/10/20 07:03:55;;;;;;;20.35;12.63;;;12.10;99.90;;;;;;10293952;28;20050;-76
2022/10/20 07:08:58;;;;;;;18.90;11.25;;;12.00;99.90;;;;;;10294165;28;20117;-76
2022/10/20 07:14:02;;;;;;;21.13;11.20;;;12.20;99.90;;;;;;10291002;28;20054;-75
2022/10/20 07:19:05;;;;;;;22.13;11.32;;;12.20;99.90;;;;;;10291955;28;20586;-76
2022/10/20 07:24:08;;;;;;;18.30;10.73;;;12.20;99.90;;;;;;10292848;28;20136;-74
2022/10/20 07:29:11;;;;;;;17.30;10.70;;;12.30;99.90;;;;;;10326227;28;20145;-73
2022/10/20 07:34:18;;;;;;;16.50;10.63;;;12.40;99.90;;;;;;10304103;28;20053;-74
2022/10/20 07:39:20;;;;;;;23.00;11.95;;;12.50;99.90;;;;;;10295032;28;20451;-75
2022/10/20 07:44:22;;;;;;;19.63;10.90;;;12.70;99.90;;;;;;10296605;28;20051;-76
2022/10/20 07:49:25;;;;;;;20.27;12.10;;;12.80;99.90;;;;;;10296056;28;20055;-78
2022/10/20 07:54:27;;;;;;;16.40;11.07;;;12.80;99.90;;;;;;10271461;28;20118;-75
2022/10/20 07:59:29;;;;;;;17.55;11.93;;;13.00;99.90;;;;;;10255710;29;20559;-75
2022/10/20 08:04:33;;;;;;;16.10;10.85;;;13.10;99.90;;;;;;10284864;28;20408;-76
2022/10/20 08:09:35;;;;;;;16.77;10.07;;;13.30;99.90;;;;;;10321120;28;20085;-73
2022/10/20 08:14:37;;;;;;;19.52;11.13;;;13.50;99.90;;;;;;10329869;28;20042;-75
2022/10/20 08:19:40;;;;;;;17.33;10.70;;;13.60;99.90;;;;;;10329654;28;20102;-75
2022/10/20 08:24:42;;;;;;;19.17;11.70;;;13.80;99.90;;;;;;10328945;28;20054;-75
2022/10/20 08:29:44;;;;;;;16.55;10.63;;;13.80;99.90;;;;;;10329023;28;20080;-76
2022/10/20 08:34:47;;;;;;;15.35;10.52;;;13.80;99.90;;;;;;10319873;28;20093;-76
2022/10/20 08:39:49;;;;;;;15.43;9.60;;;14.00;99.90;;;;;;10292022;28;20065;-75
2022/10/20 08:44:55;;;;;;;14.70;9.02;;;14.10;99.90;;;;;;10286877;28;20055;-73
2022/10/20 08:49:59;;;;;;;17.55;9.10;;;14.30;99.90;;;;;;10289423;28;20078;-74
2022/10/20 08:55:05;;;;;;;16.27;10.98;;;14.40;99.90;;;;;;10293022;28;20431;-76
2022/10/20 09:00:17;;;;;;;16.40;10.10;;;14.60;99.90;;;;;;10328967;28;20117;-76
2022/10/20 09:05:25;;;;;;;11.02;8.30;;;14.70;99.90;;;;;;10303685;28;20492;-76
2022/10/20 09:10:33;;;;;;;11.13;8.07;;;14.70;99.90;;;;;;10315706;28;20487;-74
2022/10/20 09:15:35;;;;;;;14.95;8.40;;;14.80;99.90;;;;;;10253739;29;20416;-76
2022/10/20 09:20:43;;;;;;;12.45;8.05;;;14.90;99.90;;;;;;10253295;29;20413;-76
2022/10/20 09:25:45;;;;;;;12.85;8.05;;;15.10;99.90;;;;;;10253712;29;20051;-77
2022/10/20 09:30:47;;;;;;;14.45;7.78;;;15.20;99.90;;;;;;10253359;29;20122;-74
2022/10/20 09:35:52;;;;;;;10.15;7.00;;;15.30;99.90;;;;;;10252666;29;20109;-75
2022/10/20 09:41:08;;;;;;;10.55;6.82;;;15.40;99.90;;;;;;10253544;29;20148;-74
2022/10/20 09:46:11;;;;;;;10.77;6.68;;;15.50;99.90;;;;;;10253825;29;20055;-74
2022/10/20 09:51:18;;;;;;;10.75;6.35;;;15.70;99.90;;;;;;10253088;29;20079;-77
2022/10/20 09:56:29;;;;;;;10.63;6.35;;;15.70;99.90;;;;;;10255235;28;20055;-75
2022/10/20 10:01:31;;;;;;;12.50;6.45;;;15.80;99.90;;;;;;10261836;29;20051;-76
2022/10/20 10:06:42;;;;;;;8.82;6.35;;;15.80;99.90;;;;;;10260447;29;20511;-75
2022/10/20 10:11:44;;;;;;;13.30;6.70;;;15.90;99.90;;;;;;10259798;29;20102;-75
2022/10/20 10:16:46;;;;;;;8.55;5.88;;;16.00;99.90;;;;;;10259483;29;20051;-75
2022/10/20 10:21:54;;;;;;;10.40;6.20;;;16.10;99.90;;;;;;10259724;29;20091;-77
2022/10/20 10:26:56;;;;;;;10.52;5.93;;;16.20;99.90;;;;;;10259472;29;20043;-74
2022/10/20 10:32:01;;;;;;;9.13;5.13;;;16.30;99.90;;;;;;10258713;28;20085;-75
2022/10/20 10:37:05;;;;;;;10.07;6.07;;;16.50;99.90;;;;;;10259313;29;20501;-77
2022/10/20 10:42:35;;;;;;;9.57;5.50;;;16.50;99.90;;;;;;10258805;29;20051;-74
2022/10/20 10:48:11;;;;;;;10.38;5.22;;;16.70;99.90;;;;;;10259031;29;20047;-74
2022/10/20 10:53:28;;;;;;;8.43;5.28;;;16.90;99.90;;;;;;10258396;29;20563;-74
2022/10/20 10:58:45;;;;;;;7.43;4.47;;;16.90;99.90;;;;;;10258358;29;20541;-77
2022/10/20 11:04:43;;;;;;;10.20;4.60;;;16.90;99.90;;;;;;10269910;29;20047;-75
2022/10/20 11:10:03;;;;;;;9.98;4.40;;;16.90;99.90;;;;;;10235745;29;20398;-75
2022/10/20 11:15:25;;;;;;;8.35;4.40;;;17.00;99.90;;;;;;10290244;29;20079;-74
2022/10/20 11:20:37;;;;;;;6.70;4.40;;;17.00;99.90;;;;;;10259715;29;20066;-74
2022/10/20 11:25:48;;;;;;;7.43;4.38;;;17.00;99.90;;;;;;10258446;29;20477;-73
2022/10/20 11:30:51;;;;;;;12.68;6.75;;;17.00;99.90;;;;;;10256692;28;20056;-76
2022/10/20 11:35:58;;;;;;;8.32;4.28;;;17.10;99.90;;;;;;10255811;29;20106;-77
2022/10/20 11:41:06;;;;;;;10.10;4.47;;;17.20;99.90;;;;;;10256301;29;20102;-74
2022/10/20 11:46:13;;;;;;;6.60;3.97;;;17.40;99.90;;;;;;10256776;29;20051;-75
2022/10/20 11:51:57;;;;;;;6.90;3.97;;;17.50;99.90;;;;;;10255860;29;20082;-76
2022/10/20 11:57:17;;;;;;;8.43;3.78;;;17.50;99.90;;;;;;10256222;29;20050;-73
2022/10/20 12:02:53;;;;;;;8.90;4.60;;;17.40;99.90;;;;;;10255526;29;20404;-74
2022/10/20 12:08:20;;;;;;;9.45;4.32;;;17.30;99.90;;;;;;10255511;29;20043;-74
2022/10/20 12:13:36;;;;;;;8.77;4.37;;;17.30;99.90;;;;;;10255454;29;20047;-74
2022/10/20 12:18:38;;;;;;;7.13;4.20;;;;;;;;;;10254894;28;20047;-76
2022/10/20 12:24:04;;;;;;;7.20;3.70;;;17.50;99.90;;;;;;10238002;29;20159;-77
2022/10/20 12:29:51;;;;;;;9.27;4.00;;;17.40;99.90;;;;;;10254624;29;20114;-74
2022/10/20 12:34:55;;;;;;;15.20;7.60;;;17.50;99.90;;;;;;10254704;28;20176;-77
2022/10/20 12:40:19;;;;;;;8.82;4.28;;;17.50;99.90;;;;;;10255076;29;20473;-75
2022/10/20 12:45:36;;;;;;;7.40;3.85;;;17.50;99.90;;;;;;10237768;29;20536;-76
2022/10/20 12:50:40;;;;;;;9.93;4.03;;;17.40;99.90;;;;;;10236695;29;20047;-75
2022/10/20 12:55:44;;;;;;;10.45;3.97;;;17.40;99.90;;;;;;10253971;29;20056;-75
2022/10/20 13:01:09;;;;;;;8.35;4.38;;;17.50;99.90;;;;;;10256055;29;20090;-76
2022/10/20 13:06:42;;;;;;;7.20;3.95;;;17.50;99.90;;;;;;10259613;29;20425;-75
2022/10/20 13:11:54;;;;;;;9.27;4.63;;;17.60;99.90;;;;;;10270223;29;20103;-77
2022/10/20 13:17:10;;;;;;;7.25;4.63;;;17.50;99.90;;;;;;10281080;29;20063;-75
2022/10/20 13:22:45;;;;;;;10.82;4.80;;;17.50;99.90;;;;;;10263942;29;20059;-75
2022/10/20 13:27:49;;;;;;;10.80;5.20;;;17.50;99.90;;;;;;10255103;29;20055;-74
2022/10/20 13:33:05;;;;;;;11.63;5.25;;;17.50;99.90;;;;;;10262110;28;20063;-76
2022/10/20 13:38:16;;;;;;;8.77;4.78;;;17.40;99.90;;;;;;10266505;29;20107;-75
2022/10/20 13:43:31;;;;;;;13.55;5.38;;;17.80;99.90;;;;;;10266550;29;20055;-75
2022/10/20 13:48:50;;;;;;;14.98;5.30;;;17.80;99.90;;;;;;10267925;29;20043;-77
2022/10/20 13:53:56;;;;;;;13.65;4.82;;;17.80;99.90;;;;;;10266508;29;20052;-74
2022/10/20 13:59:01;;;;;;;13.93;6.15;;;17.70;99.90;;;;;;10263638;29;20106;-74
2022/10/20 14:04:27;;;;;;;8.02;4.57;;;;;;;;;;10264752;29;20051;-76
2022/10/20 14:09:30;;;;;;;9.90;5.28;;;;;;;;;;10263590;29;20560;-76
2022/10/20 14:14:32;;;;;;;11.38;5.65;;;;;;;;;;10264006;29;20059;-75
2022/10/20 14:19:36;;;;;;;13.98;5.75;;;;;;;;;;10263277;29;20047;-76
2022/10/20 14:24:47;;;;;;;12.32;6.13;;;;;;;;;;10279737;28;20109;-75
